VH80 CYXU-CYXU
Flight info
| Callsign | VH80 |
|---|---|
| Flight time | N/A |
| Altitude | 1900 |
| Route | CYXU/27 CIRCUITS |
| Aircraft | F18 |
Departure
| Time | 2026-05-05 21:05 |
|---|---|
| Airport | London International Airport (CYXU) |
Arrival
| Time | N/A |
|---|---|
| Airport | London International Airport (CYXU) |
| Time | Latitude | Longitude | Altitude | Speed | Heading |
|---|---|---|---|---|---|
| 2026-05-05 20:55 | 43.03572 | -81.16431 | 908 ft | 0 kts | 333° |
| 2026-05-05 20:58 | 43.03599 | -81.16424 | 909 ft | 4 kts | 66° |
| 2026-05-05 20:58 | 43.03614 | -81.16326 | 908 ft | 14 kts | 79° |
| 2026-05-05 20:58 | 43.03634 | -81.16192 | 906 ft | 15 kts | 79° |
| 2026-05-05 20:59 | 43.03656 | -81.16040 | 904 ft | 17 kts | 78° |
| 2026-05-05 20:59 | 43.03665 | -81.15980 | 903 ft | 0 kts | 78° |
| 2026-05-05 20:59 | 43.03679 | -81.15882 | 902 ft | 19 kts | 78° |
| 2026-05-05 21:00 | 43.03692 | -81.15789 | 901 ft | 26 kts | 82° |
| 2026-05-05 21:00 | 43.03652 | -81.15632 | 901 ft | 15 kts | 133° |
| 2026-05-05 21:00 | 43.03577 | -81.15537 | 900 ft | 14 kts | 138° |
| 2026-05-05 21:00 | 43.03480 | -81.15421 | 903 ft | 26 kts | 139° |
| 2026-05-05 21:01 | 43.03357 | -81.15275 | 903 ft | 19 kts | 139° |
| 2026-05-05 21:01 | 43.03291 | -81.15160 | 903 ft | 13 kts | 54° |
| 2026-05-05 21:01 | 43.03390 | -81.15021 | 906 ft | 29 kts | 44° |
| 2026-05-05 21:01 | 43.03490 | -81.14887 | 907 ft | 22 kts | 44° |
| 2026-05-05 21:02 | 43.03597 | -81.14738 | 908 ft | 23 kts | 44° |
| 2026-05-05 21:02 | 43.03729 | -81.14563 | 906 ft | 27 kts | 43° |
| 2026-05-05 21:02 | 43.03749 | -81.14537 | 905 ft | 0 kts | 43° |
| 2026-05-05 21:03 | 43.03753 | -81.14532 | 905 ft | 12 kts | 43° |
| 2026-05-05 21:03 | 43.03849 | -81.14418 | 902 ft | 2 kts | 24° |
| 2026-05-05 21:03 | 43.03875 | -81.14412 | 902 ft | 11 kts | 350° |
| 2026-05-05 21:03 | 43.03926 | -81.14437 | 901 ft | 0 kts | 340° |
| 2026-05-05 21:04 | 43.03993 | -81.14470 | 901 ft | 20 kts | 339° |
| 2026-05-05 21:05 | 43.04067 | -81.14535 | 902 ft | 10 kts | 284° |
| 2026-05-05 21:05 | 43.04064 | -81.14562 | 902 ft | 0 kts | 258° |
| 2026-05-05 21:05 | 43.04011 | -81.14921 | 911 ft | 143 kts | 259° |
| 2026-05-05 21:05 | 43.03740 | -81.16936 | 2285 ft | 224 kts | 253° |
| 2026-05-05 21:06 | 43.02785 | -81.17348 | 1158 ft | 150 kts | 76° |